createdAt,value
2016-09-04T00:00:22.486Z,71.9
2016-09-04T00:00:46.992Z,71.9
2016-09-04T00:01:11.728Z,72.1
2016-09-04T00:01:36.077Z,72.2
2016-09-04T00:02:00.426Z,72.3
2016-09-04T00:02:24.726Z,72.7
2016-09-04T00:02:48.972Z,72.5
2016-09-04T00:03:13.692Z,72.4
2016-09-04T00:03:39.181Z,72.2
2016-09-04T00:04:05.499Z,72.3
2016-09-04T00:04:30.174Z,72
2016-09-04T00:04:55.499Z,72.5
2016-09-04T00:05:20.956Z,72.6
2016-09-04T00:05:45.064Z,72.6
2016-09-04T00:06:09.205Z,72.6
2016-09-04T00:06:33.348Z,72.9
2016-09-04T00:06:57.473Z,72.8
2016-09-04T00:07:21.596Z,72.9
2016-09-04T00:07:45.709Z,73
2016-09-04T00:08:09.837Z,73.3
2016-09-04T00:08:33.978Z,73.1
2016-09-04T00:08:58.097Z,72.8
2016-09-04T00:09:22.222Z,73.2
2016-09-04T00:09:46.378Z,73
2016-09-04T00:10:10.533Z,72.8
2016-09-04T00:10:34.656Z,73.5
2016-09-04T00:10:58.812Z,73.4
2016-09-04T00:11:22.938Z,73.7
2016-09-04T00:11:47.057Z,73
2016-09-04T00:12:11.183Z,73.5
2016-09-04T00:12:35.310Z,73.5
2016-09-04T00:12:59.446Z,73.4
2016-09-04T00:13:23.582Z,73.1
2016-09-04T00:13:47.716Z,72.9
2016-09-04T00:14:11.845Z,73
2016-09-04T00:14:35.981Z,73.2
2016-09-04T00:15:00.103Z,73
2016-09-04T00:15:24.214Z,72.9
2016-09-04T00:15:48.352Z,72.7
2016-09-04T00:16:12.473Z,72.7
2016-09-04T00:16:36.581Z,72.6
2016-09-04T00:17:00.721Z,72.6
2016-09-04T00:17:24.836Z,72.9
2016-09-04T00:17:48.954Z,73.2
2016-09-04T00:18:13.077Z,72.7
2016-09-04T00:18:37.212Z,72.9
2016-09-04T00:19:01.325Z,72.8
2016-09-04T00:19:25.469Z,72.8
2016-09-04T00:19:49.595Z,72.6
2016-09-04T00:20:13.717Z,72.8
2016-09-04T00:20:37.868Z,72.6
2016-09-04T00:21:02.012Z,72.6
2016-09-04T00:21:26.122Z,72.1
2016-09-04T00:21:50.237Z,72.6
2016-09-04T00:22:14.366Z,72.3
2016-09-04T00:22:38.493Z,72.6
2016-09-04T00:23:02.601Z,72.8
2016-09-04T00:23:26.759Z,72.6
2016-09-04T00:23:50.909Z,72.6
2016-09-04T00:24:15.066Z,72.9
2016-09-04T00:24:39.172Z,72.6
2016-09-04T00:25:03.286Z,72.8
2016-09-04T00:25:27.420Z,73.1
2016-09-04T00:25:51.576Z,73
2016-09-04T00:26:15.688Z,73
2016-09-04T00:26:39.826Z,72.9
2016-09-04T00:27:03.977Z,72.8
2016-09-04T00:27:28.104Z,72.9
2016-09-04T00:27:52.231Z,72.9
2016-09-04T00:28:16.360Z,73.7
2016-09-04T00:28:40.498Z,72.9
2016-09-04T00:29:04.611Z,72.9
2016-09-04T00:29:28.718Z,73.5
2016-09-04T00:29:52.848Z,73.5
2016-09-04T00:30:16.987Z,73.4
2016-09-04T00:30:41.094Z,74.1
2016-09-04T00:31:05.220Z,74
2016-09-04T00:31:29.350Z,73.2
2016-09-04T00:31:53.498Z,73.3
2016-09-04T00:32:17.637Z,73.2
2016-09-04T00:32:41.759Z,73.4
2016-09-04T00:33:05.929Z,73.9
2016-09-04T00:33:30.065Z,73.2
2016-09-04T00:33:54.179Z,73.9
2016-09-04T00:34:18.290Z,73.3
2016-09-04T00:34:42.404Z,73.2
2016-09-04T00:35:06.546Z,73
2016-09-04T00:35:30.679Z,73.2
2016-09-04T00:35:54.791Z,73.9
2016-09-04T00:36:18.922Z,73.7
2016-09-04T00:36:43.049Z,73.7
2016-09-04T00:37:07.176Z,73.2
2016-09-04T00:37:31.308Z,73.3
2016-09-04T00:37:55.443Z,73.7
2016-09-04T00:38:19.568Z,74.1
2016-09-04T00:38:43.678Z,73.3
2016-09-04T00:39:07.814Z,73.4
2016-09-04T00:39:31.957Z,73.3
2016-09-04T00:39:56.116Z,73.2
2016-09-04T00:40:20.215Z,73.2
2016-09-04T00:40:44.348Z,73.3
2016-09-04T00:41:08.488Z,73.3
2016-09-04T00:41:32.626Z,73.5
2016-09-04T00:41:56.736Z,72.9
2016-09-04T00:42:20.878Z,73.2
2016-09-04T00:42:45.031Z,73.4
2016-09-04T00:43:09.153Z,73.7
2016-09-04T00:43:33.271Z,74.4
2016-09-04T00:43:57.397Z,74.5
2016-09-04T00:44:21.589Z,73.7
2016-09-04T00:44:45.701Z,73.8
2016-09-04T00:45:09.812Z,73.7
2016-09-04T00:45:33.955Z,74
2016-09-04T00:45:58.104Z,74.6
2016-09-04T00:46:22.224Z,74.7
2016-09-04T00:46:46.385Z,74.5
2016-09-04T00:47:10.517Z,74.6
2016-09-04T00:47:34.635Z,74.7
2016-09-04T00:47:58.738Z,73.9
2016-09-04T00:48:22.850Z,73.6
2016-09-04T00:48:46.968Z,73.9
2016-09-04T00:49:11.086Z,74.4
2016-09-04T00:49:35.191Z,74.5
2016-09-04T00:49:59.315Z,74.4
2016-09-04T00:50:23.591Z,74.6
2016-09-04T00:50:47.704Z,74.4
2016-09-04T00:51:11.879Z,74.5
2016-09-04T00:51:35.978Z,74.5
2016-09-04T00:52:00.105Z,74.4
2016-09-04T00:52:24.218Z,74.6
2016-09-04T00:52:48.335Z,74.3
2016-09-04T00:53:12.422Z,74.6
2016-09-04T00:53:36.522Z,74.1
2016-09-04T00:54:00.666Z,73.9
2016-09-04T00:54:24.762Z,73.9
2016-09-04T00:54:48.874Z,73.8
2016-09-04T00:55:13.006Z,73.7
2016-09-04T00:55:37.131Z,73.5
2016-09-04T00:56:01.223Z,73.6
2016-09-04T00:56:25.307Z,73.9
2016-09-04T00:56:49.413Z,73.8
2016-09-04T00:57:13.526Z,73.9
2016-09-04T00:57:37.622Z,73.7
2016-09-04T00:58:01.940Z,73.8
2016-09-04T00:58:26.051Z,73.9
2016-09-04T00:58:50.153Z,73.8
2016-09-04T00:59:14.267Z,73.7
2016-09-04T00:59:38.369Z,73.5
2016-09-04T01:00:02.523Z,73.7
2016-09-04T01:00:26.638Z,73.7
2016-09-04T01:00:50.748Z,73.8
2016-09-04T01:01:14.860Z,73.6
2016-09-04T01:01:38.978Z,73.9
2016-09-04T01:02:03.122Z,73.5
2016-09-04T01:02:27.216Z,73.7
2016-09-04T01:02:51.336Z,73.3
2016-09-04T01:03:15.462Z,73.5
2016-09-04T01:03:39.579Z,73.5
2016-09-04T01:04:03.681Z,73.9
2016-09-04T01:04:27.818Z,73.9
2016-09-04T01:04:51.922Z,73.8
2016-09-04T01:05:16.034Z,73.6
2016-09-04T01:05:40.133Z,73.8
2016-09-04T01:06:04.235Z,73.8
2016-09-04T01:06:28.330Z,73.3
2016-09-04T01:06:52.433Z,73.2
2016-09-04T01:07:16.548Z,73.6
2016-09-04T01:07:40.657Z,73.5
2016-09-04T01:08:04.787Z,73.3
2016-09-04T01:08:28.917Z,73.5
2016-09-04T01:08:53.026Z,73.4
2016-09-04T01:09:17.141Z,73.9
2016-09-04T01:09:41.295Z,73.9
2016-09-04T01:10:05.394Z,73.9
2016-09-04T01:10:29.498Z,73.5
2016-09-04T01:10:53.626Z,73.8
2016-09-04T01:11:17.744Z,73.2
2016-09-04T01:11:41.843Z,73.2
2016-09-04T01:12:05.949Z,73.1
2016-09-04T01:12:30.058Z,73.9
2016-09-04T01:12:54.190Z,73.2
2016-09-04T01:13:18.335Z,74
2016-09-04T01:13:42.443Z,73.5
2016-09-04T01:14:06.537Z,74
2016-09-04T01:14:30.645Z,73.4
2016-09-04T01:14:54.742Z,74
2016-09-04T01:15:18.846Z,73.3
2016-09-04T01:15:42.949Z,73.6
2016-09-04T01:16:07.059Z,73
2016-09-04T01:16:31.190Z,72.9
2016-09-04T01:16:55.301Z,73.4
2016-09-04T01:17:19.409Z,73.1
2016-09-04T01:17:43.504Z,73.9
2016-09-04T01:18:07.599Z,73.4
2016-09-04T01:18:31.716Z,73.6
2016-09-04T01:18:55.848Z,73.6
2016-09-04T01:19:19.985Z,73.6
2016-09-04T01:19:44.068Z,74
2016-09-04T01:20:08.194Z,73.8
2016-09-04T01:20:32.302Z,73.8
2016-09-04T01:20:56.436Z,73.7
2016-09-04T01:21:20.547Z,73.6
2016-09-04T01:21:44.653Z,74
2016-09-04T01:22:08.759Z,73.4
2016-09-04T01:22:32.894Z,73.7
2016-09-04T01:22:57.019Z,73.6
2016-09-04T01:23:21.144Z,73.8
2016-09-04T01:23:45.278Z,74.1
2016-09-04T01:24:09.403Z,73.9
2016-09-04T01:24:33.513Z,73.9
2016-09-04T01:24:57.640Z,74.4
2016-09-04T01:25:21.750Z,74.2
2016-09-04T01:25:45.863Z,74.6
2016-09-04T01:26:09.972Z,74.4
2016-09-04T01:26:34.078Z,74.3
2016-09-04T01:26:58.204Z,74.6
2016-09-04T01:27:22.318Z,74.9
2016-09-04T01:27:46.423Z,74.7
2016-09-04T01:28:10.537Z,74.6
2016-09-04T01:28:34.659Z,74.4
2016-09-04T01:28:58.792Z,74.8
2016-09-04T01:29:22.915Z,74.5
2016-09-04T01:29:47.041Z,74.4
2016-09-04T01:30:11.152Z,74.2
2016-09-04T01:30:36.029Z,74.5
2016-09-04T01:31:00.159Z,74.2
2016-09-04T01:31:24.287Z,74.5
2016-09-04T01:31:48.409Z,74.4
2016-09-04T01:32:12.534Z,74.4
2016-09-04T01:32:36.644Z,74.4
2016-09-04T01:33:00.773Z,74.6
2016-09-04T01:33:24.894Z,74.4
2016-09-04T01:33:49.010Z,74.6
2016-09-04T01:34:13.139Z,74.6
2016-09-04T01:34:37.242Z,74.7
2016-09-04T01:35:01.383Z,75
2016-09-04T01:35:25.471Z,75.4
2016-09-04T01:35:49.581Z,75.4
2016-09-04T01:36:13.689Z,75.1
2016-09-04T01:36:37.802Z,74.5
2016-09-04T01:37:01.934Z,75.2
2016-09-04T01:37:26.038Z,75.5
2016-09-04T01:37:50.146Z,74.9
2016-09-04T01:38:14.264Z,75.1
2016-09-04T01:38:38.374Z,75.2
2016-09-04T01:39:02.506Z,75.2
2016-09-04T01:39:26.639Z,75.4
2016-09-04T01:39:50.754Z,75.1
2016-09-04T01:40:14.875Z,75
2016-09-04T01:40:38.984Z,75
2016-09-04T01:41:03.091Z,75.1
2016-09-04T01:41:27.235Z,74.9
2016-09-04T01:41:51.357Z,75.1
2016-09-04T01:42:15.471Z,75.1
2016-09-04T01:42:39.601Z,74.9
2016-09-04T01:43:03.714Z,75
2016-09-04T01:43:27.823Z,75
2016-09-04T01:43:51.958Z,74.9
2016-09-04T01:44:16.108Z,74.7
2016-09-04T01:44:40.222Z,74.8
2016-09-04T01:45:04.331Z,75.7
2016-09-04T01:45:28.471Z,75.9
2016-09-04T01:45:52.604Z,75.5
2016-09-04T01:46:16.765Z,75.7
2016-09-04T01:46:40.883Z,75.6
2016-09-04T01:47:05.003Z,75.4
2016-09-04T01:47:29.142Z,75.5
2016-09-04T01:47:53.271Z,75.5
2016-09-04T01:48:17.400Z,75.7
2016-09-04T01:48:41.507Z,76.3
2016-09-04T01:49:05.652Z,76.1
2016-09-04T01:49:29.780Z,75.7
2016-09-04T01:49:53.924Z,75.7
2016-09-04T01:50:18.051Z,76
2016-09-04T01:50:42.195Z,75.9
2016-09-04T01:51:06.317Z,76
2016-09-04T01:51:30.449Z,75.7
2016-09-04T01:51:54.585Z,75.9
2016-09-04T01:52:18.728Z,75.8
2016-09-04T01:52:42.843Z,76.2
2016-09-04T01:53:06.973Z,76.2
2016-09-04T01:53:31.145Z,75.3
2016-09-04T01:53:55.262Z,75.9
2016-09-04T01:54:19.384Z,75.5
2016-09-04T01:54:43.515Z,75.5
2016-09-04T01:55:07.638Z,75.4
2016-09-04T01:55:31.769Z,75.6
2016-09-04T01:55:55.874Z,75.5
2016-09-04T01:56:19.983Z,75.4
2016-09-04T01:56:44.133Z,75.8
2016-09-04T01:57:08.281Z,75.9
2016-09-04T01:57:32.409Z,75.6
2016-09-04T01:57:56.534Z,75.7
2016-09-04T01:58:20.660Z,75.7
2016-09-04T01:58:44.824Z,75.4
2016-09-04T01:59:08.946Z,75.4
2016-09-04T01:59:33.076Z,75.6
2016-09-04T01:59:57.201Z,75.5
2016-09-04T02:00:21.325Z,75.7
2016-09-04T02:00:45.449Z,75.8
2016-09-04T02:01:09.584Z,75.7
2016-09-04T02:01:33.714Z,75.4
2016-09-04T02:01:57.841Z,75.6
2016-09-04T02:02:21.967Z,75.6
2016-09-04T02:02:46.075Z,75.4
2016-09-04T02:03:10.210Z,75.7
2016-09-04T02:03:34.377Z,76.2
2016-09-04T02:03:58.502Z,75.7
2016-09-04T02:04:22.650Z,75.5
2016-09-04T02:04:46.780Z,75.5
2016-09-04T02:05:10.923Z,75.6
2016-09-04T02:05:35.052Z,75.6
2016-09-04T02:05:59.186Z,75.5
2016-09-04T02:06:23.332Z,75.7
2016-09-04T02:06:47.463Z,75.2
2016-09-04T02:07:11.581Z,75.8
2016-09-04T02:07:35.712Z,75.5
2016-09-04T02:07:59.863Z,75.6
2016-09-04T02:08:23.986Z,75.7
2016-09-04T02:08:48.114Z,75.2
2016-09-04T02:09:12.267Z,75.8
2016-09-04T02:09:36.434Z,75.7
2016-09-04T02:10:00.559Z,75.5
2016-09-04T02:10:24.688Z,75.5
2016-09-04T02:10:48.806Z,75.8
2016-09-04T02:11:12.943Z,75.3
2016-09-04T02:11:37.050Z,75.5
2016-09-04T02:12:01.187Z,74.8
2016-09-04T02:12:25.317Z,74.9
2016-09-04T02:12:49.448Z,75
2016-09-04T02:13:13.562Z,75
2016-09-04T02:13:37.683Z,75
2016-09-04T02:14:01.817Z,75
2016-09-04T02:14:25.937Z,75.1
2016-09-04T02:14:50.056Z,75.1
2016-09-04T02:15:14.174Z,74.9
2016-09-04T02:15:38.306Z,75.2
2016-09-04T02:16:02.448Z,75
2016-09-04T02:16:26.568Z,75.5
2016-09-04T02:16:50.712Z,75
2016-09-04T02:17:14.843Z,74.9
2016-09-04T02:17:38.945Z,75
2016-09-04T02:18:03.088Z,74.9
2016-09-04T02:18:27.188Z,74.9
2016-09-04T02:18:51.298Z,75.7
2016-09-04T02:19:15.435Z,75.7
2016-09-04T02:19:39.541Z,75.8
2016-09-04T02:20:03.664Z,75
2016-09-04T02:20:27.792Z,75
2016-09-04T02:20:51.920Z,75
2016-09-04T02:21:16.060Z,75
2016-09-04T02:21:40.194Z,75.1
2016-09-04T02:22:04.336Z,75.3
2016-09-04T02:22:28.468Z,75.3
2016-09-04T02:22:52.576Z,75
2016-09-04T02:23:16.736Z,75.1
2016-09-04T02:23:40.855Z,75
2016-09-04T02:24:04.962Z,75.1
2016-09-04T02:24:29.106Z,75.2
2016-09-04T02:24:53.233Z,75.3
2016-09-04T02:25:17.349Z,75.3
2016-09-04T02:25:41.462Z,75.1
2016-09-04T02:26:05.585Z,75.1
2016-09-04T02:26:29.699Z,75
2016-09-04T02:26:53.827Z,75
2016-09-04T02:27:17.916Z,75
2016-09-04T02:27:42.048Z,75.1
2016-09-04T02:28:06.199Z,75.3
2016-09-04T02:28:30.344Z,75.3
2016-09-04T02:28:54.470Z,75.2
2016-09-04T02:29:18.608Z,75.1
2016-09-04T02:29:42.764Z,75.2
2016-09-04T02:30:06.904Z,75.3
2016-09-04T02:30:31.007Z,75.5
2016-09-04T02:30:55.137Z,75.1
2016-09-04T02:31:19.286Z,75.3
2016-09-04T02:31:43.411Z,75.2
2016-09-04T02:32:07.534Z,74.7
2016-09-04T02:32:31.655Z,75.3
2016-09-04T02:32:55.782Z,75.2
2016-09-04T02:33:19.922Z,74.7
2016-09-04T02:33:44.026Z,74.8
2016-09-04T02:34:08.165Z,74.7
2016-09-04T02:34:32.286Z,75
2016-09-04T02:34:56.424Z,74.7
2016-09-04T02:35:20.524Z,74.7
2016-09-04T02:35:44.641Z,74.9
2016-09-04T02:36:08.797Z,74.4
2016-09-04T02:36:32.935Z,75
2016-09-04T02:36:57.052Z,74.6
2016-09-04T02:37:21.173Z,74.8
2016-09-04T02:37:45.299Z,74.8
2016-09-04T02:38:09.415Z,74.7
2016-09-04T02:38:33.542Z,74.6
2016-09-04T02:38:57.669Z,74.7
2016-09-04T02:39:21.802Z,74.7
2016-09-04T02:39:45.914Z,74.2
2016-09-04T02:40:10.024Z,74.2
2016-09-04T02:40:34.147Z,74.6
2016-09-04T02:40:58.986Z,74.6
2016-09-04T02:41:23.129Z,74.6
2016-09-04T02:41:47.222Z,74.5
2016-09-04T02:42:11.356Z,74.3
2016-09-04T02:42:35.497Z,74.5
2016-09-04T02:42:59.620Z,74.5
2016-09-04T02:43:23.747Z,74.4
2016-09-04T02:43:47.871Z,74.9
2016-09-04T02:44:12.018Z,74.7
2016-09-04T02:44:36.150Z,74.9
2016-09-04T02:45:00.292Z,74.3
2016-09-04T02:45:24.433Z,74.3
2016-09-04T02:45:48.556Z,74.2
2016-09-04T02:46:12.675Z,74.4
2016-09-04T02:46:36.793Z,74.6
2016-09-04T02:47:00.935Z,74.2
2016-09-04T02:47:25.071Z,74.5
2016-09-04T02:47:49.173Z,74.3
2016-09-04T02:48:13.288Z,74.6
2016-09-04T02:48:37.428Z,74.8
2016-09-04T02:49:01.570Z,74.4
2016-09-04T02:49:25.702Z,74.9
2016-09-04T02:49:49.809Z,74.9
2016-09-04T02:50:13.943Z,74.7
2016-09-04T02:50:38.080Z,74.5
2016-09-04T02:51:02.201Z,74.7
2016-09-04T02:51:26.347Z,74.9
2016-09-04T02:51:50.496Z,74.7
2016-09-04T02:52:14.609Z,75.2
2016-09-04T02:52:38.735Z,74.4
2016-09-04T02:53:02.860Z,74.9
2016-09-04T02:53:26.963Z,74.8
2016-09-04T02:53:51.106Z,74.9
2016-09-04T02:54:15.211Z,74.6
2016-09-04T02:54:39.353Z,74.9
2016-09-04T02:55:03.510Z,74.6
2016-09-04T02:55:27.651Z,74.6
2016-09-04T02:55:51.769Z,74.8
2016-09-04T02:56:15.922Z,74.8
2016-09-04T02:56:40.061Z,75.1
2016-09-04T02:57:04.219Z,74.5
2016-09-04T02:57:28.328Z,75.2
2016-09-04T02:57:52.471Z,75.1
2016-09-04T02:58:16.608Z,74.9
2016-09-04T02:58:40.767Z,75
2016-09-04T02:59:04.906Z,75
2016-09-04T02:59:29.072Z,75
2016-09-04T02:59:53.211Z,74.9
2016-09-04T03:00:17.350Z,75.8
2016-09-04T03:00:41.467Z,75.6
2016-09-04T03:01:05.598Z,75.6
2016-09-04T03:01:29.731Z,75.7
2016-09-04T03:01:53.858Z,75.6
2016-09-04T03:02:17.985Z,75.8
2016-09-04T03:02:42.114Z,75.5
2016-09-04T03:03:06.255Z,75.7
2016-09-04T03:03:30.380Z,75.4
2016-09-04T03:03:54.513Z,75.4
2016-09-04T03:04:18.638Z,75.4
2016-09-04T03:04:42.773Z,75.8
2016-09-04T03:05:06.885Z,75.6
2016-09-04T03:05:31.027Z,75.6
2016-09-04T03:05:55.167Z,75.3
2016-09-04T03:06:19.316Z,75.2
2016-09-04T03:06:43.431Z,75.3
2016-09-04T03:07:07.564Z,75
2016-09-04T03:07:31.694Z,75
2016-09-04T03:07:55.821Z,74.9
2016-09-04T03:08:19.931Z,75.7
2016-09-04T03:08:44.103Z,75.4
2016-09-04T03:09:08.233Z,75.4
2016-09-04T03:09:32.377Z,75.6
2016-09-04T03:09:56.485Z,75.6
2016-09-04T03:10:20.614Z,75.4
2016-09-04T03:10:44.754Z,75.5
2016-09-04T03:11:08.880Z,75.6
2016-09-04T03:11:33.011Z,75.4
2016-09-04T03:11:57.155Z,75.8
2016-09-04T03:12:21.274Z,75.6
2016-09-04T03:12:45.406Z,75.7
2016-09-04T03:13:09.547Z,75.6
2016-09-04T03:13:33.668Z,75.8
2016-09-04T03:13:57.814Z,75.8
2016-09-04T03:14:21.969Z,75.3
2016-09-04T03:14:46.077Z,75.3
2016-09-04T03:15:10.203Z,75.2
2016-09-04T03:15:34.323Z,75.3
2016-09-04T03:15:58.436Z,75.7
2016-09-04T03:16:22.546Z,75.7
2016-09-04T03:16:46.686Z,75.1
2016-09-04T03:17:10.835Z,74.9
2016-09-04T03:17:34.960Z,75.1
2016-09-04T03:17:59.076Z,74.9
2016-09-04T03:18:23.208Z,75.2
2016-09-04T03:18:47.344Z,75.1
2016-09-04T03:19:11.485Z,75.2
2016-09-04T03:19:35.626Z,75.2
2016-09-04T03:19:59.772Z,75.2
2016-09-04T03:20:23.907Z,75.1
2016-09-04T03:20:48.026Z,75.2
2016-09-04T03:21:12.144Z,74.6
2016-09-04T03:21:36.279Z,74.8
2016-09-04T03:22:00.422Z,75
2016-09-04T03:22:24.583Z,74.8
2016-09-04T03:22:48.702Z,74.9
2016-09-04T03:23:12.824Z,74.7
2016-09-04T03:23:36.957Z,74.8
2016-09-04T03:24:01.085Z,75
2016-09-04T03:24:25.200Z,74.6
2016-09-04T03:24:49.355Z,74.4
2016-09-04T03:25:13.485Z,74.3
2016-09-04T03:25:37.597Z,74.2
2016-09-04T03:26:01.710Z,74.4
2016-09-04T03:26:25.824Z,74.5
2016-09-04T03:26:49.954Z,74.2
2016-09-04T03:27:14.091Z,74.2
2016-09-04T03:27:38.202Z,74.3
2016-09-04T03:28:02.340Z,74.5
2016-09-04T03:28:26.456Z,74.5
2016-09-04T03:28:50.577Z,74.7
2016-09-04T03:29:14.706Z,74.6
2016-09-04T03:29:38.855Z,74.3
2016-09-04T03:30:02.970Z,74.9
2016-09-04T03:30:27.105Z,74.8
2016-09-04T03:30:51.227Z,74.7
2016-09-04T03:31:15.345Z,74.4
2016-09-04T03:31:39.478Z,74.3
2016-09-04T03:32:03.599Z,74.5
2016-09-04T03:32:27.712Z,74.4
2016-09-04T03:32:51.854Z,74.4
2016-09-04T03:33:16.029Z,74.8
2016-09-04T03:33:40.158Z,74.6
2016-09-04T03:34:04.274Z,74.4
2016-09-04T03:34:28.427Z,74.8
2016-09-04T03:34:52.563Z,74.4
2016-09-04T03:35:16.684Z,74.4
2016-09-04T03:35:40.826Z,74.5
2016-09-04T03:36:04.952Z,74.5
2016-09-04T03:36:29.103Z,74.4
2016-09-04T03:36:53.221Z,74.1
2016-09-04T03:37:17.355Z,74.2
2016-09-04T03:37:41.491Z,74.2
2016-09-04T03:38:05.614Z,74.3
2016-09-04T03:38:29.752Z,74.2
2016-09-04T03:38:53.891Z,74.2
2016-09-04T03:39:18.026Z,74.1
2016-09-04T03:39:42.152Z,74.2
2016-09-04T03:40:06.274Z,74.5
2016-09-04T03:40:30.431Z,74.2
2016-09-04T03:40:54.561Z,74.3
2016-09-04T03:41:18.688Z,74.6
2016-09-04T03:41:42.807Z,74.4
2016-09-04T03:42:06.917Z,74.7
2016-09-04T03:42:31.053Z,74.4
2016-09-04T03:42:55.187Z,74.4
2016-09-04T03:43:19.295Z,74.6
2016-09-04T03:43:43.428Z,74.4
2016-09-04T03:44:07.561Z,74.8
2016-09-04T03:44:31.714Z,74.9
2016-09-04T03:44:55.829Z,74.4
2016-09-04T03:45:19.968Z,74.3
2016-09-04T03:45:44.104Z,74.7
2016-09-04T03:46:08.240Z,74.5
2016-09-04T03:46:32.388Z,74.9
2016-09-04T03:46:56.544Z,74.6
2016-09-04T03:47:20.706Z,74.8
2016-09-04T03:47:44.832Z,74.6
2016-09-04T03:48:08.949Z,75
2016-09-04T03:48:33.082Z,75.2
2016-09-04T03:48:57.209Z,75.4
2016-09-04T03:49:21.340Z,75.1
2016-09-04T03:49:45.442Z,74.7
2016-09-04T03:50:09.589Z,75.1
2016-09-04T03:50:33.716Z,75
2016-09-04T03:50:57.854Z,75.1
2016-09-04T03:51:21.979Z,74.9
2016-09-04T03:51:46.118Z,75
2016-09-04T03:52:10.258Z,75
2016-09-04T03:52:34.375Z,75.1
2016-09-04T03:52:58.501Z,75.5
2016-09-04T03:53:22.638Z,74.9
2016-09-04T03:53:46.797Z,75.2
2016-09-04T03:54:10.942Z,75
2016-09-04T03:54:35.056Z,75.2
2016-09-04T03:54:59.179Z,75.2
2016-09-04T03:55:23.309Z,74.9
2016-09-04T03:55:47.402Z,75.3
2016-09-04T03:56:11.524Z,74.9
2016-09-04T03:56:35.663Z,74.9
2016-09-04T03:56:59.810Z,75
2016-09-04T03:57:23.924Z,75.2
2016-09-04T03:57:48.046Z,75.7
2016-09-04T03:58:12.157Z,75
2016-09-04T03:58:36.285Z,74.9
2016-09-04T03:59:00.402Z,75
2016-09-04T03:59:24.519Z,75.2
2016-09-04T03:59:48.636Z,75
2016-09-04T04:00:12.793Z,75.2
2016-09-04T04:00:36.906Z,75.5
2016-09-04T04:01:01.029Z,75.5
2016-09-04T04:01:25.145Z,75.8
2016-09-04T04:01:49.258Z,75.2
2016-09-04T04:02:13.410Z,75.6
2016-09-04T04:02:37.526Z,75.2
2016-09-04T04:03:01.657Z,74.9
2016-09-04T04:03:25.780Z,75.1
2016-09-04T04:03:49.906Z,74.9
2016-09-04T04:04:14.053Z,75.7
2016-09-04T04:04:38.195Z,75.8
2016-09-04T04:05:02.344Z,75.4
2016-09-04T04:05:26.499Z,75.5
2016-09-04T04:05:50.616Z,76.1
2016-09-04T04:06:14.737Z,76.2
2016-09-04T04:06:38.870Z,76
2016-09-04T04:07:03.000Z,75.9
2016-09-04T04:07:27.119Z,76.2
2016-09-04T04:07:51.233Z,76.6
2016-09-04T04:08:15.358Z,76.6
2016-09-04T04:08:39.499Z,76.2
2016-09-04T04:09:03.635Z,76.2
2016-09-04T04:09:27.759Z,76.6
2016-09-04T04:09:51.873Z,75.9
2016-09-04T04:10:15.994Z,76.7
2016-09-04T04:10:40.113Z,76.2
2016-09-04T04:11:04.243Z,75.8
2016-09-04T04:11:28.367Z,76.7
2016-09-04T04:11:52.501Z,76.6
2016-09-04T04:12:16.621Z,76.2
2016-09-04T04:12:40.740Z,76
2016-09-04T04:13:04.865Z,75.9
2016-09-04T04:13:29.006Z,76.1
2016-09-04T04:13:53.140Z,76.1
2016-09-04T04:14:17.266Z,76.5
2016-09-04T04:14:41.412Z,75.7
2016-09-04T04:15:05.525Z,76
2016-09-04T04:15:29.669Z,75.8
2016-09-04T04:15:53.815Z,75.9
2016-09-04T04:16:17.962Z,75.7
2016-09-04T04:16:42.090Z,75.9
2016-09-04T04:17:06.237Z,75.9
2016-09-04T04:17:30.365Z,75.5
2016-09-04T04:17:54.503Z,75.5
2016-09-04T04:18:18.628Z,75.5
2016-09-04T04:18:42.762Z,76.1
2016-09-04T04:19:06.890Z,76
2016-09-04T04:19:31.021Z,75.5
2016-09-04T04:19:55.167Z,75.8
2016-09-04T04:20:19.283Z,75.9
2016-09-04T04:20:43.425Z,75.9
2016-09-04T04:21:07.527Z,75.3
2016-09-04T04:21:31.664Z,75.9
2016-09-04T04:21:55.821Z,75.3
2016-09-04T04:22:19.969Z,75.5
2016-09-04T04:22:44.069Z,75.5
2016-09-04T04:23:08.181Z,75.5
2016-09-04T04:23:32.311Z,75.7
2016-09-04T04:23:56.458Z,75.5
2016-09-04T04:24:20.582Z,75.6
2016-09-04T04:24:44.707Z,75.6
2016-09-04T04:25:08.831Z,75.6
2016-09-04T04:25:32.959Z,75.5
2016-09-04T04:25:57.079Z,75.5
2016-09-04T04:26:21.188Z,75.3
2016-09-04T04:26:45.291Z,75.6
2016-09-04T04:27:09.420Z,75.6
2016-09-04T04:27:33.533Z,75.5
2016-09-04T04:27:57.673Z,75.7
2016-09-04T04:28:21.819Z,75.7
2016-09-04T04:28:45.963Z,76.1
2016-09-04T04:29:10.085Z,75.5
2016-09-04T04:29:34.192Z,76.1
2016-09-04T04:29:58.321Z,75.5
2016-09-04T04:30:22.448Z,75.7
2016-09-04T04:30:46.573Z,75.7
2016-09-04T04:31:10.701Z,75.8
2016-09-04T04:31:34.815Z,76.4
2016-09-04T04:31:58.930Z,75.8
2016-09-04T04:32:23.052Z,75.5
2016-09-04T04:32:47.174Z,76.3
2016-09-04T04:33:11.306Z,76.1
2016-09-04T04:33:35.423Z,76.2
2016-09-04T04:33:59.530Z,75.8
2016-09-04T04:34:23.654Z,75.8
2016-09-04T04:34:47.785Z,75.4
2016-09-04T04:35:11.897Z,75.7
2016-09-04T04:35:36.018Z,75.7
2016-09-04T04:36:00.157Z,75.5
2016-09-04T04:36:24.276Z,75.6
2016-09-04T04:36:48.383Z,75.2
2016-09-04T04:37:12.496Z,75
2016-09-04T04:37:36.624Z,75.2
2016-09-04T04:38:00.750Z,75.1
2016-09-04T04:38:24.866Z,75.2
2016-09-04T04:38:48.993Z,75.1
2016-09-04T04:39:13.121Z,75.3
2016-09-04T04:39:37.249Z,75.3
2016-09-04T04:40:01.356Z,75.4
2016-09-04T04:40:25.474Z,75.4
2016-09-04T04:40:49.601Z,75.2
2016-09-04T04:41:13.762Z,75
2016-09-04T04:41:37.889Z,75.1
2016-09-04T04:42:02.029Z,75.3
2016-09-04T04:42:26.170Z,75.6
2016-09-04T04:42:50.297Z,75.3
2016-09-04T04:43:14.403Z,75.4
2016-09-04T04:43:38.520Z,75.5
2016-09-04T04:44:02.645Z,75.2
2016-09-04T04:44:26.768Z,75.2
2016-09-04T04:44:50.872Z,75.2
2016-09-04T04:45:14.985Z,74.8
2016-09-04T04:45:39.120Z,74.8
2016-09-04T04:46:03.289Z,74.6
2016-09-04T04:46:27.404Z,74.8
2016-09-04T04:46:51.549Z,75.3
2016-09-04T04:47:15.670Z,74.8
2016-09-04T04:47:39.782Z,74.8
2016-09-04T04:48:03.884Z,74.8
2016-09-04T04:48:28.008Z,74.9
2016-09-04T04:48:52.133Z,74.7
2016-09-04T04:49:16.266Z,74.8
2016-09-04T04:49:40.389Z,75
2016-09-04T04:50:04.501Z,74.5
2016-09-04T04:50:28.619Z,74.3
2016-09-04T04:50:52.751Z,74.2
2016-09-04T04:51:16.869Z,74.4
2016-09-04T04:51:41.010Z,74.8
2016-09-04T04:52:05.146Z,75
2016-09-04T04:52:29.276Z,74.6
2016-09-04T04:52:53.409Z,74.6
2016-09-04T04:53:17.516Z,75
2016-09-04T04:53:41.651Z,75
2016-09-04T04:54:05.774Z,75
2016-09-04T04:54:29.891Z,74.9
2016-09-04T04:54:54.001Z,74.4
2016-09-04T04:55:18.133Z,74.4
2016-09-04T04:55:42.253Z,74.5
2016-09-04T04:56:06.367Z,74.6
2016-09-04T04:56:30.510Z,74.4
2016-09-04T04:56:54.656Z,74.4
2016-09-04T04:57:18.764Z,74.6
2016-09-04T04:57:42.914Z,74.4
2016-09-04T04:58:07.050Z,74.2
2016-09-04T04:58:31.175Z,73.8
2016-09-04T04:58:55.299Z,74
2016-09-04T04:59:19.429Z,74.3
2016-09-04T04:59:43.548Z,74
2016-09-04T05:00:07.722Z,73.9
2016-09-04T05:00:31.841Z,73.7
2016-09-04T05:00:55.987Z,74.7
2016-09-04T05:01:20.121Z,74.6
2016-09-04T05:01:44.233Z,74.7
2016-09-04T05:02:08.350Z,73.9
2016-09-04T05:02:32.479Z,73.8
2016-09-04T05:02:56.616Z,73.8
2016-09-04T05:03:20.740Z,73.7
2016-09-04T05:03:44.870Z,73.6
2016-09-04T05:04:08.985Z,74
2016-09-04T05:04:33.114Z,74
2016-09-04T05:04:57.237Z,74.6
2016-09-04T05:05:21.326Z,73.8
2016-09-04T05:05:45.448Z,73.8
2016-09-04T05:06:09.603Z,73.9
2016-09-04T05:06:33.733Z,73.6
2016-09-04T05:06:57.862Z,74
2016-09-04T05:07:21.971Z,74.1
2016-09-04T05:07:46.107Z,73.7
2016-09-04T05:08:10.231Z,73.8
2016-09-04T05:08:34.363Z,73.9
2016-09-04T05:08:58.495Z,73.8
2016-09-04T05:09:22.621Z,73.9
2016-09-04T05:09:46.753Z,73.8
2016-09-04T05:10:10.861Z,73.7
2016-09-04T05:10:34.987Z,73.6
2016-09-04T05:10:59.128Z,73.8
2016-09-04T05:11:23.266Z,73.6
2016-09-04T05:11:47.382Z,73.8
2016-09-04T05:12:11.497Z,73.7
2016-09-04T05:12:35.633Z,73.9
2016-09-04T05:12:59.743Z,73.8
2016-09-04T05:13:23.868Z,73.4
2016-09-04T05:13:48.019Z,73.3
2016-09-04T05:14:12.154Z,73.7
2016-09-04T05:14:36.270Z,73.8
2016-09-04T05:15:00.400Z,73.6
2016-09-04T05:15:24.520Z,73.3
2016-09-04T05:15:48.656Z,73.5
2016-09-04T05:16:12.758Z,73.4
2016-09-04T05:16:36.879Z,73.2
2016-09-04T05:17:01.012Z,74.1
2016-09-04T05:17:25.138Z,73.8
2016-09-04T05:17:49.257Z,73.8
2016-09-04T05:18:13.377Z,73.8
2016-09-04T05:18:37.524Z,73.6
2016-09-04T05:19:01.647Z,73.4
2016-09-04T05:19:25.736Z,73.2
2016-09-04T05:19:49.856Z,73.3
2016-09-04T05:20:13.984Z,73.6
2016-09-04T05:20:38.082Z,73.5
2016-09-04T05:21:02.201Z,73.4
2016-09-04T05:21:26.319Z,74
2016-09-04T05:21:50.431Z,73.3
2016-09-04T05:22:14.550Z,73.4
2016-09-04T05:22:38.680Z,73.4
2016-09-04T05:23:02.802Z,73.3
2016-09-04T05:23:26.934Z,73.6